Time;durP1;ratioP1;P1;durP2;ratioP2;P2;SDS_P1;SDS_P2;PMS_P1;PMS_P2;Temp;Humidity;BMP_temperature;BMP_pressure;BME280_temperature;BME280_humidity;BME280_pressure;Samples;Min_cycle;Max_cycle;Signal;HPM_P1;HPM_P2
2023/07/23 00:00:55;;;;;;;57.90;2.60;;;;;;;;;;5098594;28;20460;-70
2023/07/23 00:03:22;;;;;;;56.77;2.27;;;;;;;;;;5097909;28;20473;-69
2023/07/23 00:05:51;;;;;;;56.87;2.00;;;;;;;;;;5092940;28;20894;-70
2023/07/23 00:08:19;;;;;;;56.87;2.20;;;;;;;;;;5091261;28;20947;-68
2023/07/23 00:10:46;;;;;;;56.67;2.43;;;;;;;;;;5098286;28;20451;-70
2023/07/23 00:13:13;;;;;;;57.10;2.30;;;;;;;;;;5098245;28;20490;-69
2023/07/23 00:15:40;;;;;;;56.63;2.10;;;;;;;;;;5098479;28;20456;-70
2023/07/23 00:18:08;;;;;;;57.20;3.27;;;;;;;;;;5098573;28;20458;-70
2023/07/23 00:20:35;;;;;;;56.67;2.30;;;;;;;;;;5098273;28;20453;-70
2023/07/23 00:23:03;;;;;;;57.00;2.73;;;;;;;;;;5098369;28;20475;-70
2023/07/23 00:25:30;;;;;;;56.60;2.27;;;;;;;;;;5098531;28;20450;-70
2023/07/23 00:27:57;;;;;;;56.70;2.00;;;;;;;;;;5098418;28;20446;-70
2023/07/23 00:30:24;;;;;;;56.47;2.10;;;;;;;;;;5097755;28;20946;-70
2023/07/23 00:32:51;;;;;;;57.57;2.70;;;;;;;;;;5097614;28;20486;-70
2023/07/23 00:35:20;;;;;;;58.70;2.67;;;;;;;;;;5096815;28;20461;-70
2023/07/23 00:37:47;;;;;;;56.60;2.00;;;;;;;;;;5097071;28;20447;-70
2023/07/23 00:40:14;;;;;;;56.90;2.27;;;;;;;;;;5098142;28;20462;-70
2023/07/23 00:42:41;;;;;;;57.10;3.10;;;;;;;;;;5097619;28;20497;-70
2023/07/23 00:45:09;;;;;;;56.67;2.10;;;;;;;;;;5097627;28;20450;-70
2023/07/23 00:47:36;;;;;;;56.70;2.00;;;;;;;;;;5097400;28;20457;-69
2023/07/23 00:50:04;;;;;;;56.70;2.30;;;;;;;;;;5097076;28;21068;-70
2023/07/23 00:52:32;;;;;;;56.80;2.50;;;;;;;;;;5097817;28;20486;-70
2023/07/23 00:55:00;;;;;;;57.70;2.90;;;;;;;;;;5097385;28;20458;-70
2023/07/23 00:57:27;;;;;;;56.87;2.10;;;;;;;;;;5097651;28;20446;-70
2023/07/23 00:59:56;;;;;;;56.77;2.17;;;;;;;;;;5097907;28;20465;-69
2023/07/23 01:02:23;;;;;;;57.10;2.43;;;;;;;;;;5097049;28;20466;-70
2023/07/23 01:04:50;;;;;;;56.67;2.20;;;;;;;;;;5097067;28;20458;-69
2023/07/23 01:07:17;;;;;;;56.70;2.33;;;;;;;;;;5096518;28;20450;-71
2023/07/23 01:09:47;;;;;;;56.57;2.17;;;;;;;;;;5096919;28;20822;-69
2023/07/23 01:12:17;;;;;;;56.63;2.00;;;;;;;;;;5097101;28;20577;-69
2023/07/23 01:14:44;;;;;;;56.60;2.03;;;;;;;;;;5097007;28;20986;-70
2023/07/23 01:17:13;;;;;;;56.80;2.00;;;;;;;;;;5096875;28;20446;-70
2023/07/23 01:19:40;;;;;;;56.27;2.40;;;;;;;;;;5097149;28;20970;-70
2023/07/23 01:22:08;;;;;;;56.60;1.80;;;;;;;;;;5096151;28;20805;-70
2023/07/23 01:24:35;;;;;;;56.67;2.20;;;;;;;;;;5096498;28;20442;-70
2023/07/23 01:27:03;;;;;;;56.67;2.30;;;;;;;;;;5096293;28;20460;-70
2023/07/23 01:29:30;;;;;;;56.73;2.00;;;;;;;;;;5096957;28;20451;-70
2023/07/23 01:31:57;;;;;;;56.90;2.10;;;;;;;;;;5096027;28;20496;-70
2023/07/23 01:34:24;;;;;;;56.80;2.20;;;;;;;;;;5097066;28;20468;-70
2023/07/23 01:36:52;;;;;;;57.30;2.57;;;;;;;;;;5081423;28;20455;-69
2023/07/23 01:39:20;;;;;;;57.37;2.60;;;;;;;;;;5085163;28;20459;-70
2023/07/23 01:41:48;;;;;;;57.10;2.93;;;;;;;;;;5084690;28;20455;-70
2023/07/23 01:44:15;;;;;;;56.70;2.40;;;;;;;;;;5096801;28;20458;-70
2023/07/23 01:46:42;;;;;;;57.30;2.80;;;;;;;;;;5095267;28;20457;-70
2023/07/23 01:49:09;;;;;;;58.13;3.97;;;;;;;;;;5080038;28;20450;-70
2023/07/23 01:51:36;;;;;;;56.80;2.20;;;;;;;;;;5095881;28;20473;-70
2023/07/23 01:54:03;;;;;;;56.87;2.73;;;;;;;;;;5096459;28;20451;-70
2023/07/23 01:56:32;;;;;;;56.97;2.40;;;;;;;;;;5096652;28;20454;-70
2023/07/23 01:58:59;;;;;;;56.87;2.33;;;;;;;;;;5096119;28;20962;-70
2023/07/23 02:01:27;;;;;;;56.73;2.00;;;;;;;;;;5095805;28;21003;-69
2023/07/23 02:03:54;;;;;;;59.37;2.67;;;;;;;;;;5095843;28;20510;-70
2023/07/23 02:06:21;;;;;;;56.80;2.37;;;;;;;;;;5087088;28;20442;-70
2023/07/23 02:08:48;;;;;;;56.73;2.00;;;;;;;;;;5095725;28;20473;-70
2023/07/23 02:11:15;;;;;;;56.77;1.90;;;;;;;;;;5094703;28;20450;-71
2023/07/23 02:13:44;;;;;;;56.77;2.10;;;;;;;;;;5094483;28;21005;-70
2023/07/23 02:16:17;;;;;;;56.67;2.00;;;;;;;;;;5094621;28;20870;-70
2023/07/23 02:18:44;;;;;;;56.87;2.20;;;;;;;;;;5094658;28;20443;-70
2023/07/23 02:21:11;;;;;;;56.87;2.10;;;;;;;;;;5093876;28;20459;-69
2023/07/23 02:23:38;;;;;;;58.13;3.13;;;;;;;;;;5095691;28;20449;-70
2023/07/23 02:26:05;;;;;;;56.67;2.10;;;;;;;;;;5095763;28;20446;-70
2023/07/23 02:28:32;;;;;;;56.57;2.07;;;;;;;;;;5095298;28;20826;-70
2023/07/23 02:31:01;;;;;;;56.80;2.30;;;;;;;;;;5091565;28;20453;-70
2023/07/23 02:33:28;;;;;;;57.10;2.53;;;;;;;;;;5074488;28;20483;-70
2023/07/23 02:35:55;;;;;;;57.20;2.50;;;;;;;;;;5075046;28;20460;-70
2023/07/23 02:38:22;;;;;;;56.67;2.20;;;;;;;;;;5075373;28;20451;-70
2023/07/23 02:40:49;;;;;;;56.77;2.00;;;;;;;;;;5074556;28;20542;-69
2023/07/23 02:43:16;;;;;;;56.73;2.73;;;;;;;;;;5074530;28;20847;-70
2023/07/23 02:45:44;;;;;;;57.10;2.73;;;;;;;;;;5074727;28;20451;-70
2023/07/23 02:48:12;;;;;;;56.77;2.37;;;;;;;;;;5075390;28;20466;-70
2023/07/23 02:50:39;;;;;;;56.53;2.20;;;;;;;;;;5074155;28;20602;-70
2023/07/23 02:53:07;;;;;;;57.10;2.30;;;;;;;;;;5073648;28;20852;-70
2023/07/23 02:55:34;;;;;;;56.67;2.27;;;;;;;;;;5073547;28;20463;-69
2023/07/23 02:58:04;;;;;;;56.80;2.37;;;;;;;;;;5074350;28;20447;-70
2023/07/23 03:00:31;;;;;;;56.60;2.10;;;;;;;;;;5072291;28;20529;-70
2023/07/23 03:02:58;;;;;;;58.07;2.30;;;;;;;;;;5073720;28;20468;-69
2023/07/23 03:05:26;;;;;;;56.90;2.50;;;;;;;;;;5073440;28;20451;-70
2023/07/23 03:07:54;;;;;;;57.00;2.37;;;;;;;;;;5073751;28;20455;-70
2023/07/23 03:10:21;;;;;;;56.60;2.27;;;;;;;;;;5073453;28;20451;-70
2023/07/23 03:12:48;;;;;;;56.80;2.50;;;;;;;;;;5073750;28;20497;-70
2023/07/23 03:15:15;;;;;;;56.63;2.13;;;;;;;;;;5074141;28;20459;-70
2023/07/23 03:17:42;;;;;;;56.77;2.30;;;;;;;;;;5073839;28;20456;-70
2023/07/23 03:20:10;;;;;;;56.70;2.13;;;;;;;;;;5073058;28;20455;-70
2023/07/23 03:22:40;;;;;;;56.87;2.20;;;;;;;;;;5073527;28;20509;-70
2023/07/23 03:25:07;;;;;;;56.63;2.23;;;;;;;;;;5073786;28;20511;-70
2023/07/23 03:27:34;;;;;;;56.70;2.30;;;;;;;;;;5073788;28;20534;-70
2023/07/23 03:30:02;;;;;;;56.67;2.30;;;;;;;;;;5073975;28;20454;-70
2023/07/23 03:32:30;;;;;;;56.90;2.20;;;;;;;;;;5073377;28;20484;-70
2023/07/23 03:34:57;;;;;;;57.40;3.37;;;;;;;;;;5073526;28;21000;-67
2023/07/23 03:37:24;;;;;;;56.53;2.00;;;;;;;;;;5075559;28;20451;-70
2023/07/23 03:39:52;;;;;;;56.80;2.53;;;;;;;;;;5087019;28;20450;-70
2023/07/23 03:42:19;;;;;;;56.83;2.93;;;;;;;;;;5081524;28;20474;-69
2023/07/23 03:44:46;;;;;;;56.60;2.40;;;;;;;;;;5090467;28;20474;-70
2023/07/23 03:47:15;;;;;;;57.00;2.70;;;;;;;;;;5093237;28;20454;-70
2023/07/23 03:49:42;;;;;;;56.60;2.63;;;;;;;;;;5092325;28;20458;-70
2023/07/23 03:52:09;;;;;;;56.70;2.10;;;;;;;;;;5073035;28;20497;-69
2023/07/23 03:54:37;;;;;;;56.57;2.10;;;;;;;;;;5072804;28;20909;-70
2023/07/23 03:57:06;;;;;;;56.60;2.00;;;;;;;;;;5073118;28;20450;-70
2023/07/23 03:59:36;;;;;;;56.87;2.50;;;;;;;;;;5072852;28;20451;-70
2023/07/23 04:02:03;;;;;;;56.67;2.47;;;;;;;;;;5073043;28;20478;-70
2023/07/23 04:04:30;;;;;;;56.77;2.10;;;;;;;;;;5072936;28;20443;-70
2023/07/23 04:06:57;;;;;;;56.70;2.20;;;;;;;;;;5072875;28;20446;-69
2023/07/23 04:09:24;;;;;;;56.90;2.77;;;;;;;;;;5072915;28;20451;-70
2023/07/23 04:11:52;;;;;;;56.70;2.10;;;;;;;;;;5076111;28;20463;-70
2023/07/23 04:14:20;;;;;;;56.80;2.27;;;;;;;;;;5076900;28;20521;-71
2023/07/23 04:16:47;;;;;;;56.77;2.00;;;;;;;;;;5076538;28;20955;-70
2023/07/23 04:19:15;;;;;;;56.27;2.00;;;;;;;;;;5076568;28;20530;-71
2023/07/23 04:21:42;;;;;;;56.47;2.10;;;;;;;;;;5076253;28;20817;-71
2023/07/23 04:24:09;;;;;;;56.43;2.10;;;;;;;;;;5076256;28;20454;-70
2023/07/23 04:26:36;;;;;;;56.70;2.10;;;;;;;;;;5075860;28;20450;-71
2023/07/23 04:29:03;;;;;;;56.53;2.20;;;;;;;;;;5076334;28;20451;-70
2023/07/23 04:31:32;;;;;;;56.80;2.57;;;;;;;;;;5075369;28;20457;-70
2023/07/23 04:33:59;;;;;;;56.90;2.20;;;;;;;;;;5075414;28;20851;-70
2023/07/23 04:36:28;;;;;;;56.87;2.60;;;;;;;;;;5075844;28;20451;-70
2023/07/23 04:38:55;;;;;;;56.77;2.40;;;;;;;;;;5075445;28;20943;-71
2023/07/23 04:41:22;;;;;;;57.30;2.63;;;;;;;;;;5074960;28;20448;-71
2023/07/23 04:43:49;;;;;;;56.87;2.60;;;;;;;;;;5075026;28;20444;-71
2023/07/23 04:46:16;;;;;;;56.77;2.10;;;;;;;;;;5076013;28;20451;-71
2023/07/23 04:48:45;;;;;;;57.10;2.93;;;;;;;;;;5075442;28;20834;-70
2023/07/23 04:51:12;;;;;;;56.80;2.90;;;;;;;;;;5075496;28;20447;-70
2023/07/23 04:53:39;;;;;;;56.67;2.30;;;;;;;;;;5075159;28;20487;-70
2023/07/23 04:56:06;;;;;;;56.80;2.50;;;;;;;;;;5074622;28;20502;-70
2023/07/23 04:58:34;;;;;;;56.80;2.50;;;;;;;;;;5074440;28;20534;-70
2023/07/23 05:01:07;;;;;;;56.77;2.27;;;;;;;;;;5074511;28;20827;-71
2023/07/23 05:03:34;;;;;;;56.87;2.43;;;;;;;;;;5074699;28;20475;-70
2023/07/23 05:06:04;;;;;;;56.63;2.10;;;;;;;;;;5075230;28;20822;-71
2023/07/23 05:08:31;;;;;;;56.80;2.40;;;;;;;;;;5074752;28;20479;-70
2023/07/23 05:11:00;;;;;;;56.40;2.20;;;;;;;;;;5074516;28;20446;-70
2023/07/23 05:13:27;;;;;;;56.77;2.30;;;;;;;;;;5074401;28;20490;-71
2023/07/23 05:15:54;;;;;;;56.97;2.40;;;;;;;;;;5074765;28;20461;-70
2023/07/23 05:18:21;;;;;;;56.47;2.20;;;;;;;;;;5074849;28;20935;-71
2023/07/23 05:20:48;;;;;;;56.87;2.60;;;;;;;;;;5074866;28;20451;-70
2023/07/23 05:23:17;;;;;;;56.63;2.30;;;;;;;;;;5073955;28;20463;-71
2023/07/23 05:25:44;;;;;;;56.37;2.30;;;;;;;;;;5074194;28;20466;-69
2023/07/23 05:28:11;;;;;;;57.07;2.50;;;;;;;;;;5074125;28;20458;-71
2023/07/23 05:30:40;;;;;;;56.67;2.07;;;;;;;;;;5073786;28;20451;-70
2023/07/23 05:33:07;;;;;;;56.50;2.10;;;;;;;;;;5074186;28;20483;-70
2023/07/23 05:35:34;;;;;;;56.60;2.40;;;;;;;;;;5070948;28;20456;-70
2023/07/23 05:38:01;;;;;;;56.67;2.13;;;;;;;;;;5084981;28;20451;-71
2023/07/23 05:40:35;;;;;;;56.67;2.40;;;;;;;;;;5084842;28;20970;-70
2023/07/23 05:43:06;;;;;;;56.90;2.20;;;;;;;;;;5093168;28;20480;-69
2023/07/23 05:45:33;;;;;;;56.33;1.80;;;;;;;;;;5094196;28;20446;-70
2023/07/23 05:48:00;;;;;;;56.60;2.30;;;;;;;;;;5085712;28;21051;-71
2023/07/23 05:50:27;;;;;;;56.23;2.10;;;;;;;;;;5095087;28;20895;-70
2023/07/23 05:52:55;;;;;;;56.40;1.90;;;;;;;;;;5094183;28;20477;-70
2023/07/23 05:55:22;;;;;;;56.23;1.93;;;;;;;;;;5086731;28;20958;-71
2023/07/23 05:57:50;;;;;;;56.80;2.00;;;;;;;;;;5075053;28;20462;-70
2023/07/23 06:00:17;;;;;;;55.93;2.10;;;;;;;;;;5074561;28;20447;-70
2023/07/23 06:02:44;;;;;;;56.57;1.90;;;;;;;;;;5082900;28;20842;-70
2023/07/23 06:05:11;;;;;;;56.63;2.40;;;;;;;;;;5086962;28;20443;-71
2023/07/23 06:07:39;;;;;;;56.70;2.30;;;;;;;;;;5094182;28;20473;-71
2023/07/23 06:10:06;;;;;;;56.43;2.00;;;;;;;;;;5094705;28;20453;-70
2023/07/23 06:12:34;;;;;;;57.00;2.50;;;;;;;;;;5094742;28;20474;-70
2023/07/23 06:15:02;;;;;;;56.27;1.90;;;;;;;;;;5094870;28;20493;-71
2023/07/23 06:17:29;;;;;;;56.70;2.10;;;;;;;;;;5094945;28;20842;-69
2023/07/23 06:19:56;;;;;;;56.60;2.30;;;;;;;;;;5095097;28;20451;-71
2023/07/23 06:22:24;;;;;;;56.43;1.90;;;;;;;;;;5094297;28;20986;-70
2023/07/23 06:24:51;;;;;;;56.57;2.13;;;;;;;;;;5095014;28;20813;-71
2023/07/23 06:27:18;;;;;;;56.17;2.00;;;;;;;;;;5094981;28;20487;-71
2023/07/23 06:29:45;;;;;;;56.40;2.00;;;;;;;;;;5094457;28;20452;-70
2023/07/23 06:32:14;;;;;;;55.70;1.93;;;;;;;;;;5093815;28;20470;-71
2023/07/23 06:34:41;;;;;;;56.40;1.97;;;;;;;;;;5092465;28;20849;-71
2023/07/23 06:37:08;;;;;;;56.40;1.87;;;;;;;;;;5093629;28;20447;-70
2023/07/23 06:39:35;;;;;;;56.90;2.10;;;;;;;;;;5093692;28;20450;-71
2023/07/23 06:42:02;;;;;;;56.20;2.20;;;;;;;;;;5092864;28;20467;-70
2023/07/23 06:44:29;;;;;;;56.13;2.20;;;;;;;;;;5094036;28;20438;-71
2023/07/23 06:46:57;;;;;;;56.60;2.10;;;;;;;;;;5094414;28;20460;-70
2023/07/23 06:49:28;;;;;;;56.50;1.97;;;;;;;;;;5094591;28;20511;-71
2023/07/23 06:51:55;;;;;;;56.27;1.90;;;;;;;;;;5092942;28;20503;-70
2023/07/23 06:54:22;;;;;;;56.60;2.67;;;;;;;;;;5093693;28;20483;-71
2023/07/23 06:56:51;;;;;;;56.17;2.30;;;;;;;;;;5093608;28;20453;-71
2023/07/23 06:59:19;;;;;;;56.30;2.07;;;;;;;;;;5093283;28;20500;-70
2023/07/23 07:01:46;;;;;;;56.07;2.10;;;;;;;;;;5092790;28;20478;-70
2023/07/23 07:04:13;;;;;;;56.57;2.00;;;;;;;;;;5093363;28;20556;-71
2023/07/23 07:06:42;;;;;;;56.17;1.80;;;;;;;;;;5094023;28;20500;-71
2023/07/23 07:09:09;;;;;;;56.80;2.03;;;;;;;;;;5095395;28;20451;-70
2023/07/23 07:11:37;;;;;;;56.50;1.80;;;;;;;;;;5094664;28;20474;-71
2023/07/23 07:14:04;;;;;;;57.10;2.20;;;;;;;;;;5094049;28;20484;-71
2023/07/23 07:16:31;;;;;;;56.50;2.23;;;;;;;;;;5094357;28;20461;-71
2023/07/23 07:18:58;;;;;;;56.00;1.90;;;;;;;;;;5094966;28;20821;-71
2023/07/23 07:21:25;;;;;;;56.90;2.10;;;;;;;;;;5094732;28;20452;-71
2023/07/23 07:23:53;;;;;;;56.37;1.90;;;;;;;;;;5095499;28;20446;-71
2023/07/23 07:26:20;;;;;;;56.40;1.80;;;;;;;;;;5093885;28;20461;-72
2023/07/23 07:28:47;;;;;;;56.30;2.10;;;;;;;;;;5093624;28;20447;-70
2023/07/23 07:31:15;;;;;;;59.70;2.47;;;;;;;;;;5093297;28;20459;-71
2023/07/23 07:33:43;;;;;;;56.40;2.37;;;;;;;;;;5093548;28;20514;-70
2023/07/23 07:36:11;;;;;;;55.93;2.03;;;;;;;;;;5087835;28;20582;-71
2023/07/23 07:38:38;;;;;;;56.27;2.23;;;;;;;;;;5085907;28;20454;-71
2023/07/23 07:41:06;;;;;;;57.40;2.27;;;;;;;;;;5085693;28;20442;-71
2023/07/23 07:43:33;;;;;;;56.13;2.10;;;;;;;;;;5086149;28;20641;-70
2023/07/23 07:46:02;;;;;;;56.50;1.83;;;;;;;;;;5095085;28;20825;-71
2023/07/23 07:48:30;;;;;;;56.67;2.43;;;;;;;;;;5098396;28;20454;-69
2023/07/23 07:51:00;;;;;;;56.23;2.00;;;;;;;;;;5094674;28;20454;-69
2023/07/23 07:53:28;;;;;;;56.50;2.40;;;;;;;;;;5092775;28;20518;-69
2023/07/23 07:55:55;;;;;;;56.47;2.00;;;;;;;;;;5097992;28;20462;-70
2023/07/23 07:58:25;;;;;;;56.27;1.93;;;;;;;;;;5098448;28;20457;-70
2023/07/23 08:00:53;;;;;;;55.83;1.80;;;;;;;;;;5097882;28;20450;-69
2023/07/23 08:03:20;;;;;;;56.10;2.00;;;;;;;;;;5097058;28;20470;-69
2023/07/23 08:05:48;;;;;;;56.47;1.97;;;;;;;;;;5091490;28;20452;-70
2023/07/23 08:08:15;;;;;;;55.83;1.87;;;;;;;;;;5089545;28;20446;-70
2023/07/23 08:10:42;;;;;;;55.93;1.80;;;;;;;;;;5096659;28;20456;-69
2023/07/23 08:13:11;;;;;;;55.83;1.70;;;;;;;;;;5096733;28;20474;-69
2023/07/23 08:15:39;;;;;;;56.60;2.27;;;;;;;;;;5096476;28;20486;-69
2023/07/23 08:18:07;;;;;;;56.07;1.90;;;;;;;;;;5097601;28;20458;-69
2023/07/23 08:20:35;;;;;;;56.20;1.80;;;;;;;;;;5097035;28;20457;-69
2023/07/23 08:23:02;;;;;;;55.97;1.80;;;;;;;;;;5097784;28;20558;-70
2023/07/23 08:25:30;;;;;;;56.07;2.00;;;;;;;;;;5098409;28;20451;-70
2023/07/23 08:28:00;;;;;;;56.40;1.60;;;;;;;;;;5097967;28;20463;-70
2023/07/23 08:30:27;;;;;;;56.40;1.80;;;;;;;;;;5097004;28;20446;-70
2023/07/23 08:32:57;;;;;;;56.40;2.00;;;;;;;;;;5098112;28;20470;-70
2023/07/23 08:35:24;;;;;;;55.67;1.67;;;;;;;;;;5097532;28;20505;-70
2023/07/23 08:37:52;;;;;;;56.17;2.30;;;;;;;;;;5097515;28;20734;-70
2023/07/23 08:40:19;;;;;;;57.03;2.20;;;;;;;;;;5096700;28;20450;-70
2023/07/23 08:42:56;;;;;;;55.87;2.00;;;;;;;;;;5098066;28;20997;-70
2023/07/23 08:45:36;;;;;;;56.10;1.90;;;;;;;;;;5096377;28;20512;-70
2023/07/23 08:48:12;;;;;;;55.70;2.00;;;;;;;;;;5097699;28;20457;-70
2023/07/23 08:50:41;;;;;;;56.40;2.30;;;;;;;;;;5097018;28;20450;-70
2023/07/23 08:53:10;;;;;;;55.83;1.80;;;;;;;;;;5096830;28;20475;-70
2023/07/23 08:55:37;;;;;;;56.07;1.80;;;;;;;;;;5096518;28;20544;-70
2023/07/23 08:58:05;;;;;;;56.17;1.97;;;;;;;;;;5096027;28;20826;-70
2023/07/23 09:00:32;;;;;;;56.00;1.80;;;;;;;;;;5097160;28;20452;-71
2023/07/23 09:03:03;;;;;;;56.60;1.90;;;;;;;;;;5097945;28;20473;-70
2023/07/23 09:05:31;;;;;;;56.17;1.60;;;;;;;;;;5097725;28;20484;-71
2023/07/23 09:07:58;;;;;;;55.80;1.73;;;;;;;;;;5097420;28;20457;-70
2023/07/23 09:10:25;;;;;;;56.10;1.80;;;;;;;;;;5098681;28;20457;-70
2023/07/23 09:12:53;;;;;;;56.40;1.80;;;;;;;;;;5096643;28;20485;-69
2023/07/23 09:15:20;;;;;;;56.40;1.70;;;;;;;;;;5095723;28;21015;-69
2023/07/23 09:17:50;;;;;;;55.90;1.63;;;;;;;;;;5095557;28;20446;-70
2023/07/23 09:20:18;;;;;;;55.77;1.70;;;;;;;;;;5095695;28;20473;-69
2023/07/23 09:22:47;;;;;;;55.83;2.00;;;;;;;;;;5096309;28;20467;-70
2023/07/23 09:25:14;;;;;;;55.97;1.80;;;;;;;;;;5095429;28;20447;-71
2023/07/23 09:27:43;;;;;;;56.50;2.30;;;;;;;;;;5096174;28;20454;-71
2023/07/23 09:30:18;;;;;;;56.10;2.30;;;;;;;;;;5095992;28;20443;-70
2023/07/23 09:32:45;;;;;;;56.10;1.80;;;;;;;;;;5096752;28;20503;-71
2023/07/23 09:35:12;;;;;;;56.10;2.13;;;;;;;;;;5095298;28;20830;-71
2023/07/23 09:37:39;;;;;;;55.90;1.80;;;;;;;;;;5095562;28;20549;-70
2023/07/23 09:40:09;;;;;;;55.87;1.70;;;;;;;;;;5095218;28;20950;-71
2023/07/23 09:42:38;;;;;;;56.60;2.23;;;;;;;;;;5096799;28;20526;-71
2023/07/23 09:45:06;;;;;;;56.27;1.93;;;;;;;;;;5097550;28;20503;-71
2023/07/23 09:47:33;;;;;;;56.20;1.73;;;;;;;;;;5096001;28;20450;-70
2023/07/23 09:50:00;;;;;;;55.87;1.57;;;;;;;;;;5094886;28;20455;-70
2023/07/23 09:52:34;;;;;;;56.10;2.00;;;;;;;;;;5095483;28;20473;-71
2023/07/23 09:55:02;;;;;;;55.53;1.80;;;;;;;;;;5095264;28;20535;-71
2023/07/23 09:57:32;;;;;;;56.00;1.70;;;;;;;;;;5095710;28;20456;-71
2023/07/23 09:59:59;;;;;;;56.07;1.57;;;;;;;;;;5096809;28;20939;-71
2023/07/23 10:02:28;;;;;;;55.97;1.70;;;;;;;;;;5094542;28;20470;-71
2023/07/23 10:04:56;;;;;;;56.50;2.43;;;;;;;;;;5094984;28;20443;-71
2023/07/23 10:07:23;;;;;;;56.10;1.70;;;;;;;;;;5095701;28;20450;-71
2023/07/23 10:09:51;;;;;;;56.07;1.60;;;;;;;;;;5096565;28;20446;-71
2023/07/23 10:12:20;;;;;;;56.00;1.80;;;;;;;;;;5095535;28;20471;-70
2023/07/23 10:14:48;;;;;;;55.97;1.50;;;;;;;;;;5095758;28;20904;-70
2023/07/23 10:17:15;;;;;;;56.00;1.70;;;;;;;;;;5095160;28;20454;-72
2023/07/23 10:19:43;;;;;;;55.87;1.90;;;;;;;;;;5095762;28;20447;-72
2023/07/23 10:22:10;;;;;;;55.97;1.57;;;;;;;;;;5096147;28;20540;-72
2023/07/23 10:24:41;;;;;;;56.30;1.70;;;;;;;;;;5097225;28;20922;-69
2023/07/23 10:27:11;;;;;;;57.07;2.80;;;;;;;;;;5094911;28;20454;-69
2023/07/23 10:29:38;;;;;;;55.87;1.70;;;;;;;;;;5078909;28;20464;-70
2023/07/23 10:32:20;;;;;;;55.80;2.00;;;;;;;;;;5085976;28;20480;-69
2023/07/23 10:34:49;;;;;;;55.77;1.60;;;;;;;;;;5086601;28;20487;-69
2023/07/23 10:37:18;;;;;;;56.10;1.77;;;;;;;;;;5094582;28;20443;-70
2023/07/23 10:39:45;;;;;;;55.77;2.10;;;;;;;;;;5085610;28;21227;-70
2023/07/23 10:42:37;;;;;;;55.70;1.60;;;;;;;;;;5087441;28;20834;-70
2023/07/23 10:45:14;;;;;;;55.63;1.70;;;;;;;;;;5095177;28;20874;-70
2023/07/23 10:47:47;;;;;;;55.67;1.60;;;;;;;;;;5073003;28;20455;-70
2023/07/23 10:50:17;;;;;;;55.50;1.60;;;;;;;;;;5079763;28;20450;-69
2023/07/23 10:52:45;;;;;;;56.20;2.10;;;;;;;;;;5087469;28;20465;-70
2023/07/23 10:55:12;;;;;;;56.10;1.93;;;;;;;;;;5095215;28;20509;-69
2023/07/23 10:57:41;;;;;;;55.70;1.50;;;;;;;;;;5095285;28;20851;-70
2023/07/23 11:00:19;;;;;;;55.60;1.70;;;;;;;;;;5095259;28;20454;-67
2023/07/23 11:02:47;;;;;;;55.77;1.60;;;;;;;;;;5095619;28;20473;-68
2023/07/23 11:05:16;;;;;;;56.40;2.07;;;;;;;;;;5096308;28;20450;-70
2023/07/23 11:07:43;;;;;;;55.80;1.80;;;;;;;;;;5096147;28;20446;-69
2023/07/23 11:10:20;;;;;;;55.57;1.50;;;;;;;;;;5094791;28;20476;-70
2023/07/23 11:12:47;;;;;;;55.87;1.80;;;;;;;;;;5095754;28;20466;-71
2023/07/23 11:15:15;;;;;;;55.80;1.67;;;;;;;;;;5096227;28;20486;-70
2023/07/23 11:17:42;;;;;;;55.70;1.53;;;;;;;;;;5097163;28;20451;-70
2023/07/23 11:20:10;;;;;;;55.80;1.77;;;;;;;;;;5094797;28;20451;-70
2023/07/23 11:22:43;;;;;;;55.63;1.67;;;;;;;;;;5094626;28;20492;-70
2023/07/23 11:25:16;;;;;;;55.50;1.70;;;;;;;;;;5095131;28;20934;-69
2023/07/23 11:27:43;;;;;;;55.80;1.70;;;;;;;;;;5095036;28;20493;-70
2023/07/23 11:30:14;;;;;;;55.60;1.60;;;;;;;;;;5094693;28;20484;-70
2023/07/23 11:32:44;;;;;;;56.47;2.23;;;;;;;;;;5094813;28;20477;-70
2023/07/23 11:35:11;;;;;;;55.93;1.53;;;;;;;;;;5096039;28;20516;-70
2023/07/23 11:37:47;;;;;;;56.97;1.90;;;;;;;;;;5096239;28;20486;-69
2023/07/23 11:40:20;;;;;;;55.67;1.50;;;;;;;;;;5094705;28;20860;-70
2023/07/23 11:42:47;;;;;;;56.40;2.23;;;;;;;;;;5094928;28;20477;-69
2023/07/23 11:45:14;;;;;;;55.67;1.50;;;;;;;;;;5096025;28;20453;-70
2023/07/23 11:47:48;;;;;;;55.50;1.60;;;;;;;;;;5094939;28;20457;-70
2023/07/23 11:50:15;;;;;;;55.47;1.60;;;;;;;;;;5095006;28;20477;-69
2023/07/23 11:52:43;;;;;;;55.87;2.30;;;;;;;;;;5095514;28;20476;-71
2023/07/23 11:55:20;;;;;;;55.60;1.90;;;;;;;;;;5095780;28;21005;-69
2023/07/23 11:57:51;;;;;;;55.43;1.80;;;;;;;;;;5095031;28;20503;-70
2023/07/23 12:00:24;;;;;;;55.77;2.10;;;;;;;;;;5095810;28;20450;-70
2023/07/23 12:02:51;;;;;;;55.50;1.70;;;;;;;;;;5094784;28;20481;-70
2023/07/23 12:05:19;;;;;;;55.53;1.50;;;;;;;;;;5075444;28;20447;-70
2023/07/23 12:07:46;;;;;;;55.67;1.53;;;;;;;;;;5075211;28;20457;-70
2023/07/23 12:10:14;;;;;;;55.77;1.80;;;;;;;;;;5074478;28;20450;-71
2023/07/23 12:12:44;;;;;;;55.70;1.80;;;;;;;;;;5075051;28;20486;-70
2023/07/23 12:15:13;;;;;;;55.90;1.83;;;;;;;;;;5075877;28;20529;-71
2023/07/23 12:17:40;;;;;;;55.70;2.00;;;;;;;;;;5075204;28;20451;-71
2023/07/23 12:20:08;;;;;;;55.70;1.60;;;;;;;;;;5075355;28;20965;-71
2023/07/23 12:22:35;;;;;;;55.77;1.70;;;;;;;;;;5075275;28;20474;-71
2023/07/23 12:25:02;;;;;;;55.90;1.73;;;;;;;;;;5075538;28;20983;-71
2023/07/23 12:27:30;;;;;;;55.80;1.50;;;;;;;;;;5074478;28;20459;-71
2023/07/23 12:29:58;;;;;;;56.27;1.90;;;;;;;;;;5077134;28;20962;-70
2023/07/23 12:32:25;;;;;;;55.90;1.70;;;;;;;;;;5085281;28;20474;-70
2023/07/23 12:34:52;;;;;;;56.67;2.10;;;;;;;;;;5092861;28;20440;-71
2023/07/23 12:37:20;;;;;;;55.97;1.70;;;;;;;;;;5077848;28;20485;-71
2023/07/23 12:39:47;;;;;;;56.00;1.40;;;;;;;;;;5078530;28;20451;-69
2023/07/23 12:42:15;;;;;;;55.97;1.80;;;;;;;;;;5078408;28;20463;-71
2023/07/23 12:44:42;;;;;;;55.93;1.70;;;;;;;;;;5077730;28;20542;-71
2023/07/23 12:47:10;;;;;;;56.10;1.80;;;;;;;;;;5078396;28;20448;-70
2023/07/23 12:49:37;;;;;;;56.27;1.87;;;;;;;;;;5077629;28;20451;-70
2023/07/23 12:52:05;;;;;;;56.27;1.70;;;;;;;;;;5077259;28;20554;-71
2023/07/23 12:54:32;;;;;;;56.20;1.80;;;;;;;;;;5078607;28;20966;-71
2023/07/23 12:56:59;;;;;;;56.33;1.90;;;;;;;;;;5077095;28;20483;-71
2023/07/23 12:59:26;;;;;;;56.27;1.73;;;;;;;;;;5077389;28;20458;-71
2023/07/23 13:01:53;;;;;;;55.77;1.80;;;;;;;;;;5077075;28;21060;-70
2023/07/23 13:04:22;;;;;;;55.87;1.97;;;;;;;;;;5077707;28;20457;-71
2023/07/23 13:06:50;;;;;;;55.67;1.60;;;;;;;;;;5077631;28;20470;-72
2023/07/23 13:09:17;;;;;;;55.97;1.67;;;;;;;;;;5077791;28;20491;-71
2023/07/23 13:11:44;;;;;;;56.50;1.93;;;;;;;;;;5078258;28;20851;-71
2023/07/23 13:14:11;;;;;;;55.77;1.70;;;;;;;;;;5077714;28;20451;-72
2023/07/23 13:16:38;;;;;;;56.80;1.90;;;;;;;;;;5077797;28;21033;-71
2023/07/23 13:19:05;;;;;;;56.70;1.90;;;;;;;;;;5078545;28;20454;-72
2023/07/23 13:21:34;;;;;;;56.00;1.70;;;;;;;;;;5077997;28;20458;-72
2023/07/23 13:24:01;;;;;;;55.83;2.00;;;;;;;;;;5078728;28;20462;-71
2023/07/23 13:26:28;;;;;;;56.60;2.00;;;;;;;;;;5077979;28;20453;-72
2023/07/23 13:28:55;;;;;;;56.50;2.10;;;;;;;;;;5077530;28;20940;-72
2023/07/23 13:31:22;;;;;;;56.27;2.00;;;;;;;;;;5077065;28;20469;-71
2023/07/23 13:33:50;;;;;;;56.10;1.70;;;;;;;;;;5076520;28;20450;-72
2023/07/23 13:36:17;;;;;;;56.07;1.70;;;;;;;;;;5077358;28;20530;-71
2023/07/23 13:38:46;;;;;;;56.13;1.77;;;;;;;;;;5077848;28;20444;-72
2023/07/23 13:41:15;;;;;;;56.30;2.10;;;;;;;;;;5076968;28;21006;-71
2023/07/23 13:43:42;;;;;;;55.80;1.83;;;;;;;;;;5077352;28;20466;-72
2023/07/23 13:46:10;;;;;;;55.90;1.80;;;;;;;;;;5077124;28;20456;-72
2023/07/23 13:48:37;;;;;;;55.90;1.80;;;;;;;;;;5076943;28;20461;-71
2023/07/23 13:51:04;;;;;;;56.77;2.00;;;;;;;;;;5077476;28;20452;-72
2023/07/23 13:53:31;;;;;;;56.20;2.00;;;;;;;;;;5077463;28;20527;-71
2023/07/23 13:56:00;;;;;;;55.87;1.90;;;;;;;;;;5077663;28;20487;-72
2023/07/23 13:58:27;;;;;;;56.10;2.10;;;;;;;;;;5077212;28;20450;-71
2023/07/23 14:00:54;;;;;;;56.40;2.00;;;;;;;;;;5077440;28;20457;-72
2023/07/23 14:03:21;;;;;;;56.23;1.80;;;;;;;;;;5076619;28;20538;-70
2023/07/23 14:05:48;;;;;;;57.00;2.23;;;;;;;;;;5076854;28;20809;-70
2023/07/23 14:08:15;;;;;;;55.93;1.60;;;;;;;;;;5076510;28;20454;-70
2023/07/23 14:10:42;;;;;;;56.00;1.60;;;;;;;;;;5076018;28;20506;-70
2023/07/23 14:13:11;;;;;;;56.27;1.83;;;;;;;;;;5075875;28;20475;-70
2023/07/23 14:15:38;;;;;;;55.90;1.60;;;;;;;;;;5075732;28;20457;-70
2023/07/23 14:18:05;;;;;;;56.10;1.90;;;;;;;;;;5076374;28;20459;-70
2023/07/23 14:20:32;;;;;;;56.27;2.43;;;;;;;;;;5075965;28;20482;-69
2023/07/23 14:22:59;;;;;;;56.07;1.93;;;;;;;;;;5076758;28;20463;-70
2023/07/23 14:25:26;;;;;;;56.40;1.97;;;;;;;;;;5075785;28;20973;-69
2023/07/23 14:27:53;;;;;;;56.00;1.90;;;;;;;;;;5076220;28;20454;-71
2023/07/23 14:30:22;;;;;;;56.40;2.03;;;;;;;;;;5076086;28;20447;-70
2023/07/23 14:32:49;;;;;;;56.00;1.80;;;;;;;;;;5075902;28;20481;-70
2023/07/23 14:35:16;;;;;;;56.00;1.80;;;;;;;;;;5076644;28;20787;-71